createdAt,value
2019-05-18T00:01:16.352Z,75.33
2019-05-18T00:03:44.757Z,62.17
2019-05-18T00:06:13.152Z,55.20
2019-05-18T00:08:41.545Z,61.63
2019-05-18T00:11:11.313Z,55.50
2019-05-18T00:13:39.712Z,59.80
2019-05-18T00:16:08.116Z,59.43
2019-05-18T00:18:36.526Z,48.77
2019-05-18T00:21:05.798Z,52.17
2019-05-18T00:23:34.205Z,56.97
2019-05-18T00:26:02.602Z,59.43
2019-05-18T00:28:30.989Z,57.60
2019-05-18T00:30:59.389Z,61.43
2019-05-18T00:33:28.046Z,65.13
2019-05-18T00:35:56.484Z,75.53
2019-05-18T00:38:24.884Z,60.20
2019-05-18T00:40:53.293Z,71.83
2019-05-18T00:43:21.693Z,69.10
2019-05-18T00:45:50.081Z,64.27
2019-05-18T00:48:18.482Z,61.83
2019-05-18T00:50:46.889Z,61.67
2019-05-18T00:53:15.280Z,61.10
2019-05-18T00:55:43.682Z,58.27
2019-05-18T00:58:12.082Z,58.20
2019-05-18T01:00:40.492Z,62.83
2019-05-18T01:03:08.886Z,63.13
2019-05-18T01:05:38.245Z,66.13
2019-05-18T01:08:07.289Z,60.10
2019-05-18T01:10:35.702Z,66.07
2019-05-18T01:13:04.089Z,66.50
2019-05-18T01:15:32.497Z,61.67
2019-05-18T01:18:02.297Z,64.47
2019-05-18T01:20:31.014Z,64.67
2019-05-18T01:22:59.417Z,63.83
2019-05-18T01:25:27.900Z,68.27
2019-05-18T01:27:56.297Z,74.53
2019-05-18T01:30:26.325Z,74.07
2019-05-18T01:32:54.718Z,79.57
2019-05-18T01:35:23.162Z,66.90
2019-05-18T01:37:51.553Z,63.13
2019-05-18T01:40:21.679Z,68.73
2019-05-18T01:42:50.214Z,70.03
2019-05-18T01:45:19.386Z,65.57
2019-05-18T01:47:47.789Z,68.87
2019-05-18T01:50:17.613Z,61.23
2019-05-18T01:52:46.005Z,68.40
2019-05-18T01:55:14.545Z,60.93
2019-05-18T01:57:42.945Z,64.27
2019-05-18T02:00:12.982Z,70.57
2019-05-18T02:02:41.406Z,72.57
2019-05-18T02:05:09.946Z,68.73
2019-05-18T02:07:38.337Z,58.37
2019-05-18T02:10:08.771Z,72.57
2019-05-18T02:12:37.170Z,71.80
2019-05-18T02:15:07.606Z,63.10
2019-05-18T02:17:36.149Z,64.97
2019-05-18T02:20:07.276Z,59.50
2019-05-18T02:22:35.689Z,66.97
2019-05-18T02:25:08.949Z,65.37
2019-05-18T02:27:37.353Z,68.97
2019-05-18T02:30:08.495Z,57.73
2019-05-18T02:32:36.899Z,57.83
2019-05-18T02:35:07.024Z,60.77
2019-05-18T02:37:35.427Z,47.97
2019-05-18T02:40:06.866Z,63.97
2019-05-18T02:42:35.328Z,57.10
2019-05-18T02:45:05.976Z,55.27
2019-05-18T02:47:34.389Z,54.50
2019-05-18T02:50:03.137Z,58.53
2019-05-18T02:52:31.866Z,51.60
2019-05-18T02:55:00.284Z,48.57
2019-05-18T02:57:28.666Z,54.07
2019-05-18T02:59:57.132Z,61.13
2019-05-18T03:02:25.542Z,65.40
2019-05-18T03:04:53.934Z,57.37
2019-05-18T03:07:22.332Z,70.20
2019-05-18T03:09:50.801Z,64.53
2019-05-18T03:12:19.193Z,65.20
2019-05-18T03:14:47.596Z,70.10
2019-05-18T03:17:15.995Z,78.97
2019-05-18T03:19:44.384Z,83.50
2019-05-18T03:22:12.873Z,75.00
2019-05-18T03:24:41.368Z,75.93
2019-05-18T03:27:09.818Z,67.70
2019-05-18T03:29:38.221Z,63.20
2019-05-18T03:32:06.955Z,72.73
2019-05-18T03:34:35.346Z,68.50
2019-05-18T03:37:03.754Z,72.17
2019-05-18T03:39:32.161Z,69.80
2019-05-18T03:42:00.562Z,64.37
2019-05-18T03:44:28.966Z,62.13
2019-05-18T03:46:57.575Z,69.23
2019-05-18T03:49:27.570Z,77.60
2019-05-18T03:51:56.088Z,48.57
2019-05-18T03:54:24.504Z,70.00
2019-05-18T03:56:52.907Z,69.13
2019-05-18T03:59:21.313Z,66.50
2019-05-18T04:01:49.722Z,68.17
2019-05-18T04:04:18.666Z,54.23
2019-05-18T04:06:47.806Z,64.43
2019-05-18T04:09:16.208Z,57.70
2019-05-18T04:11:44.610Z,57.07
2019-05-18T04:14:13.009Z,57.10
2019-05-18T04:16:41.440Z,67.40
2019-05-18T04:19:09.846Z,71.13
2019-05-18T04:21:38.242Z,65.13
2019-05-18T04:24:06.718Z,62.53
2019-05-18T04:26:35.125Z,65.87
2019-05-18T04:29:03.586Z,59.10
2019-05-18T04:31:32.647Z,62.00
2019-05-18T04:34:01.658Z,59.53
2019-05-18T04:36:30.066Z,59.13
2019-05-18T04:38:58.466Z,60.33
2019-05-18T04:41:26.867Z,61.57
2019-05-18T04:43:55.262Z,60.93
2019-05-18T04:46:23.658Z,58.67
2019-05-18T04:48:52.065Z,59.43
2019-05-18T04:51:20.555Z,63.93
2019-05-18T04:53:48.954Z,65.43
2019-05-18T04:56:17.347Z,57.90
2019-05-18T04:58:45.753Z,55.10
2019-05-18T05:01:14.162Z,57.47
2019-05-18T05:03:42.567Z,59.03
2019-05-18T05:06:10.965Z,58.37
2019-05-18T05:08:39.366Z,50.20
2019-05-18T05:11:07.777Z,54.00
2019-05-18T05:13:36.181Z,47.73
2019-05-18T05:16:04.665Z,43.20
2019-05-18T05:18:33.081Z,47.63
2019-05-18T05:21:01.496Z,41.83
2019-05-18T05:23:29.900Z,39.27
2019-05-18T05:25:58.294Z,42.57
2019-05-18T05:28:26.689Z,49.10
2019-05-18T05:30:55.102Z,52.63
2019-05-18T05:33:23.551Z,47.33
2019-05-18T05:35:51.970Z,51.43
2019-05-18T05:38:20.375Z,50.23
2019-05-18T05:40:49.560Z,56.37
2019-05-18T05:43:17.968Z,42.60
2019-05-18T05:45:46.363Z,58.10
2019-05-18T05:48:14.781Z,53.60
2019-05-18T05:50:44.158Z,48.93
2019-05-18T05:53:12.568Z,44.00
2019-05-18T05:55:40.966Z,44.10
2019-05-18T05:58:09.369Z,57.17
2019-05-18T06:00:37.780Z,50.97
2019-05-18T06:03:06.192Z,44.37
2019-05-18T06:05:34.600Z,46.93
2019-05-18T06:08:03.005Z,53.73
2019-05-18T06:10:31.396Z,44.27
2019-05-18T06:12:59.797Z,59.87
2019-05-18T06:15:28.204Z,51.30
2019-05-18T06:17:56.619Z,54.23
2019-05-18T06:20:25.027Z,46.87
2019-05-18T06:22:53.421Z,53.17
2019-05-18T06:25:21.854Z,49.07
2019-05-18T06:27:50.230Z,48.20
2019-05-18T06:30:19.363Z,52.47
2019-05-18T06:32:47.777Z,43.63
2019-05-18T06:35:16.173Z,44.23
2019-05-18T06:37:44.581Z,46.00
2019-05-18T06:40:13.124Z,46.40
2019-05-18T06:42:42.930Z,44.47
2019-05-18T06:45:13.365Z,37.70
2019-05-18T06:47:41.762Z,36.13
2019-05-18T06:50:12.783Z,36.83
2019-05-18T06:52:41.455Z,36.40
2019-05-18T06:55:10.693Z,37.10
2019-05-18T06:57:40.173Z,36.23
2019-05-18T07:00:11.698Z,35.50
2019-05-18T07:02:40.346Z,38.53
2019-05-18T07:05:09.773Z,37.43
2019-05-18T07:07:38.176Z,39.13
2019-05-18T07:10:07.914Z,38.07
2019-05-18T07:12:36.317Z,38.17
2019-05-18T07:15:08.117Z,36.63
2019-05-18T07:17:36.517Z,33.50
2019-05-18T07:20:06.520Z,31.50
2019-05-18T07:22:34.923Z,29.73
2019-05-18T07:25:04.994Z,28.97
2019-05-18T07:27:33.384Z,28.60
2019-05-18T07:30:01.884Z,29.10
2019-05-18T07:32:30.268Z,28.17
2019-05-18T07:34:58.677Z,28.07
2019-05-18T07:37:27.103Z,27.93
2019-05-18T07:39:56.166Z,26.80
2019-05-18T07:42:24.575Z,25.80
2019-05-18T07:44:52.973Z,24.70
2019-05-18T07:47:21.369Z,25.33
2019-05-18T07:49:49.777Z,23.97
2019-05-18T07:52:18.178Z,24.57
2019-05-18T07:54:46.578Z,23.80
2019-05-18T07:57:15.025Z,24.60
2019-05-18T07:59:43.464Z,25.07
2019-05-18T08:02:12.039Z,25.40
2019-05-18T08:04:40.441Z,24.87
2019-05-18T08:07:08.854Z,25.07
2019-05-18T08:09:37.271Z,28.03
2019-05-18T08:12:05.670Z,27.20
2019-05-18T08:14:34.074Z,27.07
2019-05-18T08:17:02.559Z,27.13
2019-05-18T08:19:31.018Z,27.60
2019-05-18T08:21:59.413Z,27.40
2019-05-18T08:24:27.850Z,25.97
2019-05-18T08:26:56.409Z,27.10
2019-05-18T08:29:24.806Z,26.17
2019-05-18T08:31:53.409Z,26.10
2019-05-18T08:34:21.793Z,27.03
2019-05-18T08:36:50.194Z,25.40
2019-05-18T08:39:18.609Z,24.90
2019-05-18T08:41:48.855Z,25.70
2019-05-18T08:44:17.129Z,24.60
2019-05-18T08:46:45.536Z,25.20
2019-05-18T08:49:13.942Z,24.63
2019-05-18T08:51:42.345Z,23.45
2019-05-18T08:54:10.808Z,23.87
2019-05-18T08:56:39.213Z,25.72
2019-05-18T08:59:07.674Z,26.30
2019-05-18T09:01:36.076Z,26.35
2019-05-18T09:04:04.540Z,27.40
2019-05-18T09:06:33.202Z,25.17
2019-05-18T09:09:01.995Z,25.27
2019-05-18T09:11:30.440Z,26.73
2019-05-18T09:13:58.832Z,28.80
2019-05-18T09:16:27.248Z,30.80
2019-05-18T09:18:55.640Z,30.30
2019-05-18T09:21:24.031Z,26.63
2019-05-18T09:23:52.433Z,28.13
2019-05-18T09:26:20.832Z,29.90
2019-05-18T09:28:49.229Z,29.57
2019-05-18T09:31:17.637Z,28.73
2019-05-18T09:33:46.050Z,29.00
2019-05-18T09:36:14.442Z,31.70
2019-05-18T09:38:42.849Z,28.38
2019-05-18T09:41:11.249Z,29.57
2019-05-18T09:43:39.655Z,28.73
2019-05-18T09:46:08.058Z,26.85
2019-05-18T09:48:36.730Z,30.37
2019-05-18T09:51:05.137Z,32.45
2019-05-18T09:53:33.555Z,31.42
2019-05-18T09:56:01.985Z,30.72
2019-05-18T09:58:30.518Z,29.00
2019-05-18T10:00:58.994Z,29.67
2019-05-18T10:03:27.477Z,30.23
2019-05-18T10:05:55.878Z,29.82
2019-05-18T10:08:24.281Z,29.80
2019-05-18T10:10:52.678Z,29.55
2019-05-18T10:13:21.097Z,30.25
2019-05-18T10:15:49.501Z,28.27
2019-05-18T10:18:17.910Z,27.55
2019-05-18T10:20:47.185Z,28.92
2019-05-18T10:23:15.582Z,28.12
2019-05-18T10:25:43.986Z,27.90
2019-05-18T10:28:12.411Z,25.90
2019-05-18T10:30:40.807Z,24.60
2019-05-18T10:33:09.209Z,19.40
2019-05-18T10:35:37.622Z,20.30
2019-05-18T10:38:06.204Z,17.52
2019-05-18T10:40:34.581Z,16.95
2019-05-18T10:43:02.991Z,19.40
2019-05-18T10:45:31.404Z,17.67
2019-05-18T10:47:59.846Z,17.20
2019-05-18T10:50:28.304Z,22.02
2019-05-18T10:52:56.733Z,21.93
2019-05-18T10:55:25.218Z,21.95
2019-05-18T10:57:53.663Z,19.90
2019-05-18T11:00:23.020Z,20.65
2019-05-18T11:02:51.435Z,20.85
2019-05-18T11:05:20.158Z,21.25
2019-05-18T11:07:48.567Z,22.75
2019-05-18T11:10:19.606Z,22.07
2019-05-18T11:12:48.068Z,21.80
2019-05-18T11:15:18.933Z,21.60
2019-05-18T11:17:47.349Z,23.52
2019-05-18T11:20:17.793Z,21.02
2019-05-18T11:22:46.195Z,22.10
2019-05-18T11:25:15.843Z,21.27
2019-05-18T11:27:45.002Z,23.32
2019-05-18T11:30:14.949Z,23.27
2019-05-18T11:32:43.362Z,19.95
2019-05-18T11:35:12.806Z,21.35
2019-05-18T11:37:41.202Z,21.45
2019-05-18T11:40:12.216Z,20.92
2019-05-18T11:42:40.626Z,20.70
2019-05-18T11:45:12.140Z,21.35
2019-05-18T11:47:41.162Z,20.23
2019-05-18T11:50:11.770Z,21.00
2019-05-18T11:52:40.213Z,20.48
2019-05-18T11:55:10.242Z,20.92
2019-05-18T11:57:38.648Z,20.17
2019-05-18T12:00:11.325Z,18.90
2019-05-18T12:02:39.719Z,18.07
2019-05-18T12:05:09.954Z,18.20
2019-05-18T12:07:38.375Z,18.85
2019-05-18T12:10:09.973Z,17.98
2019-05-18T12:12:38.416Z,19.12
2019-05-18T12:15:08.860Z,15.53
2019-05-18T12:17:37.424Z,15.45
2019-05-18T12:20:07.351Z,15.58
2019-05-18T12:22:36.056Z,16.02
2019-05-18T12:25:07.310Z,15.70
2019-05-18T12:27:35.723Z,16.17
2019-05-18T12:30:07.189Z,15.90
2019-05-18T12:32:36.049Z,15.13
2019-05-18T12:35:07.181Z,15.40
2019-05-18T12:37:35.601Z,15.20
2019-05-18T12:40:06.834Z,15.70
2019-05-18T12:42:35.241Z,15.72
2019-05-18T12:45:03.774Z,14.45
2019-05-18T12:47:32.165Z,15.13
2019-05-18T12:50:00.558Z,13.75
2019-05-18T12:52:28.963Z,13.68
2019-05-18T12:54:57.387Z,12.75
2019-05-18T12:57:25.774Z,13.05
2019-05-18T12:59:54.242Z,11.53
2019-05-18T13:02:22.645Z,11.38
2019-05-18T13:04:51.049Z,10.78
2019-05-18T13:07:19.593Z,8.88
2019-05-18T13:09:47.989Z,8.00
2019-05-18T13:12:16.382Z,6.95
2019-05-18T13:14:44.777Z,7.78
2019-05-18T13:17:13.164Z,7.78
2019-05-18T13:19:41.558Z,7.58
2019-05-18T13:22:09.947Z,8.48
2019-05-18T13:24:45.226Z,8.00
2019-05-18T13:27:08.500Z,8.75
2019-05-18T13:29:36.903Z,8.75
2019-05-18T13:32:05.309Z,8.93
2019-05-18T13:34:33.701Z,8.68
2019-05-18T13:37:02.974Z,8.65
2019-05-18T13:39:31.362Z,8.80
2019-05-18T13:41:59.818Z,9.65
2019-05-18T13:44:28.210Z,8.70
2019-05-18T13:46:56.606Z,8.95
2019-05-18T13:49:25.003Z,10.00
2019-05-18T13:51:53.409Z,10.57
2019-05-18T13:54:21.806Z,10.80
2019-05-18T13:56:50.217Z,12.17
2019-05-18T13:59:18.617Z,12.50
2019-05-18T14:01:47.023Z,12.70
2019-05-18T14:04:15.430Z,14.17
2019-05-18T14:06:43.856Z,14.70
2019-05-18T14:09:12.248Z,14.43
2019-05-18T14:11:40.663Z,13.70
2019-05-18T14:14:09.055Z,13.07
2019-05-18T14:16:37.556Z,12.33
2019-05-18T14:19:05.960Z,11.87
2019-05-18T14:21:34.351Z,12.73
2019-05-18T14:24:02.750Z,12.23
2019-05-18T14:26:31.227Z,12.77
2019-05-18T14:28:59.633Z,12.23
2019-05-18T14:31:28.035Z,11.30
2019-05-18T14:33:56.453Z,12.90
2019-05-18T14:36:24.860Z,12.03
2019-05-18T14:38:56.858Z,13.83
2019-05-18T14:41:23.382Z,14.95
2019-05-18T14:43:51.859Z,16.87
2019-05-18T14:46:20.346Z,17.62
2019-05-18T14:48:48.735Z,18.30
2019-05-18T14:51:17.158Z,18.57
2019-05-18T14:53:45.549Z,17.05
2019-05-18T14:56:13.949Z,18.02
2019-05-18T14:58:42.362Z,19.48
2019-05-18T15:01:10.826Z,19.90
2019-05-18T15:03:39.219Z,19.20
2019-05-18T15:06:07.658Z,17.20
2019-05-18T15:08:36.072Z,19.52
2019-05-18T15:11:04.518Z,18.60
2019-05-18T15:13:33.022Z,18.95
2019-05-18T15:16:01.580Z,16.42
2019-05-18T15:18:30.004Z,17.45
2019-05-18T15:20:58.458Z,17.90
2019-05-18T15:23:26.866Z,18.50
2019-05-18T15:25:55.277Z,18.05
2019-05-18T15:28:23.712Z,18.67
2019-05-18T15:30:52.103Z,19.55
2019-05-18T15:33:20.501Z,19.90
2019-05-18T15:35:48.897Z,19.60
2019-05-18T15:38:17.305Z,20.17
2019-05-18T15:40:45.700Z,21.57
2019-05-18T15:43:14.102Z,20.27
2019-05-18T15:45:42.507Z,19.48
2019-05-18T15:48:10.903Z,20.37
2019-05-18T15:50:40.472Z,18.75
2019-05-18T15:53:08.868Z,19.92
2019-05-18T15:55:37.355Z,21.53
2019-05-18T15:58:05.749Z,18.85
2019-05-18T16:00:34.281Z,19.35
2019-05-18T16:03:02.717Z,20.70
2019-05-18T16:05:31.114Z,19.60
2019-05-18T16:07:59.522Z,20.85
2019-05-18T16:10:28.421Z,19.62
2019-05-18T16:12:56.955Z,21.68
2019-05-18T16:15:25.388Z,20.02
2019-05-18T16:17:53.801Z,18.55
2019-05-18T16:20:22.269Z,18.82
2019-05-18T16:22:50.663Z,18.93
2019-05-18T16:25:20.126Z,18.55
2019-05-18T16:27:48.611Z,16.03
2019-05-18T16:30:17.855Z,18.50
2019-05-18T16:32:46.254Z,17.23
2019-05-18T16:35:14.726Z,17.45
2019-05-18T16:37:43.134Z,17.37
2019-05-18T16:40:12.364Z,29.05
2019-05-18T16:42:40.759Z,22.32
2019-05-18T16:45:11.067Z,12.57
2019-05-18T16:47:39.481Z,10.98
2019-05-18T16:50:10.763Z,13.67
2019-05-18T16:52:39.266Z,11.83
2019-05-18T16:55:09.642Z,14.63
2019-05-18T16:57:38.094Z,13.33
2019-05-18T17:00:15.421Z,27.90
2019-05-18T17:02:41.782Z,29.40
2019-05-18T17:05:11.062Z,14.90
2019-05-18T17:07:39.505Z,24.77
2019-05-18T17:10:09.834Z,21.43
2019-05-18T17:12:38.294Z,17.90
2019-05-18T17:15:09.319Z,27.20
2019-05-18T17:17:37.921Z,20.67
2019-05-18T17:20:08.446Z,22.23
2019-05-18T17:22:36.847Z,20.30
2019-05-18T17:25:06.896Z,18.57
2019-05-18T17:27:35.285Z,17.17
2019-05-18T17:30:06.513Z,13.50
2019-05-18T17:32:34.928Z,12.23
2019-05-18T17:35:05.618Z,10.17
2019-05-18T17:37:34.029Z,10.87
2019-05-18T17:40:03.827Z,13.37
2019-05-18T17:42:32.274Z,12.90
2019-05-18T17:45:00.860Z,16.77
2019-05-18T17:47:29.656Z,16.83
2019-05-18T17:49:58.654Z,13.43
2019-05-18T17:52:27.045Z,13.07
2019-05-18T17:54:57.317Z,6.33
2019-05-18T17:57:25.552Z,6.00
2019-05-18T17:59:53.957Z,4.67
2019-05-18T18:02:22.354Z,4.60
2019-05-18T18:04:54.100Z,6.27
2019-05-18T18:07:20.902Z,4.00
2019-05-18T18:09:49.281Z,4.50
2019-05-18T18:12:17.698Z,4.40
2019-05-18T18:14:46.189Z,5.03
2019-05-18T18:17:17.565Z,4.87
2019-05-18T18:19:44.703Z,5.47
2019-05-18T18:22:13.106Z,5.30
2019-05-18T18:24:41.493Z,5.50
2019-05-18T18:27:24.235Z,5.37
2019-05-18T18:29:40.015Z,5.40
2019-05-18T18:32:08.410Z,5.47
2019-05-18T18:34:36.805Z,5.27
2019-05-18T18:37:05.190Z,11.60
2019-05-18T18:39:33.598Z,5.93
2019-05-18T18:42:02.009Z,6.20
2019-05-18T18:44:30.397Z,6.10
2019-05-18T18:46:58.797Z,5.80
2019-05-18T18:49:27.253Z,5.53
2019-05-18T18:51:55.818Z,5.60
2019-05-18T18:54:24.265Z,5.53
2019-05-18T18:56:52.657Z,5.37
2019-05-18T18:59:21.055Z,5.50
2019-05-18T19:01:49.440Z,5.97
2019-05-18T19:04:17.845Z,6.33
2019-05-18T19:06:46.237Z,9.10
2019-05-18T19:09:14.638Z,6.40
2019-05-18T19:11:43.021Z,7.40
2019-05-18T19:14:11.495Z,10.67
2019-05-18T19:16:40.614Z,9.70
2019-05-18T19:19:09.013Z,7.07
2019-05-18T19:21:37.499Z,6.87
2019-05-18T19:24:05.888Z,7.30
2019-05-18T19:26:34.305Z,9.80
2019-05-18T19:29:02.701Z,8.03
2019-05-18T19:31:31.106Z,7.63
2019-05-18T19:33:59.516Z,9.00
2019-05-18T19:36:27.912Z,10.63
2019-05-18T19:38:58.643Z,12.37
2019-05-18T19:41:27.043Z,6.93
2019-05-18T19:43:55.428Z,8.03
2019-05-18T19:46:23.840Z,17.57
2019-05-18T19:48:52.241Z,7.27
2019-05-18T19:51:20.637Z,10.27
2019-05-18T19:53:49.046Z,8.83
2019-05-18T19:56:17.442Z,14.60
2019-05-18T19:58:46.102Z,10.20
2019-05-18T20:01:14.499Z,6.40
2019-05-18T20:03:42.923Z,13.57
2019-05-18T20:06:11.321Z,8.40
2019-05-18T20:08:39.825Z,11.63
2019-05-18T20:11:08.201Z,10.13
2019-05-18T20:13:38.181Z,9.50
2019-05-18T20:16:06.580Z,9.53
2019-05-18T20:18:34.986Z,18.20
2019-05-18T20:21:03.440Z,11.70
2019-05-18T20:23:31.883Z,9.10
2019-05-18T20:26:00.275Z,9.87
2019-05-18T20:28:28.681Z,9.63
2019-05-18T20:30:57.076Z,9.13
2019-05-18T20:33:25.490Z,10.00
2019-05-18T20:35:53.878Z,10.13
2019-05-18T20:38:22.293Z,11.40
2019-05-18T20:40:50.693Z,12.50
2019-05-18T20:43:19.089Z,12.93
2019-05-18T20:45:47.481Z,18.83
2019-05-18T20:48:17.021Z,15.10
2019-05-18T20:50:45.985Z,14.57
2019-05-18T20:53:14.436Z,13.97
2019-05-18T20:55:42.821Z,15.17
2019-05-18T20:58:11.221Z,15.17
2019-05-18T21:00:39.631Z,14.97
2019-05-18T21:03:08.041Z,17.27
2019-05-18T21:05:36.429Z,18.33
2019-05-18T21:08:04.965Z,19.77
2019-05-18T21:10:33.372Z,21.07
2019-05-18T21:13:01.776Z,21.30
2019-05-18T21:15:30.161Z,20.57
2019-05-18T21:17:58.578Z,21.50
2019-05-18T21:20:26.973Z,21.47
2019-05-18T21:22:55.378Z,20.63
2019-05-18T21:25:23.827Z,20.90
2019-05-18T21:27:52.214Z,21.97
2019-05-18T21:30:20.688Z,22.03
2019-05-18T21:32:49.081Z,22.17
2019-05-18T21:35:17.489Z,19.50
2019-05-18T21:37:45.896Z,19.10
2019-05-18T21:40:15.222Z,19.30
2019-05-18T21:42:43.638Z,19.10
2019-05-18T21:45:12.867Z,19.67
2019-05-18T21:47:41.270Z,21.30
2019-05-18T21:50:09.813Z,22.10
2019-05-18T21:52:38.217Z,20.63
2019-05-18T21:55:08.154Z,22.20
2019-05-18T21:57:36.556Z,22.57
2019-05-18T22:00:07.517Z,29.00
2019-05-18T22:02:35.977Z,41.03
2019-05-18T22:05:05.825Z,32.93
2019-05-18T22:07:34.214Z,23.20
2019-05-18T22:10:03.668Z,20.80
2019-05-18T22:12:32.064Z,20.97
2019-05-18T22:15:00.802Z,19.97
2019-05-18T22:17:29.258Z,21.23
2019-05-18T22:19:57.641Z,21.43
2019-05-18T22:22:26.048Z,22.17
2019-05-18T22:24:54.454Z,21.90
2019-05-18T22:27:22.849Z,23.13
2019-05-18T22:29:51.245Z,21.53
2019-05-18T22:32:19.659Z,22.63
2019-05-18T22:34:48.051Z,24.43
2019-05-18T22:37:16.446Z,22.03
2019-05-18T22:39:44.929Z,21.67
2019-05-18T22:42:13.333Z,21.30
2019-05-18T22:44:41.722Z,22.27
2019-05-18T22:47:10.128Z,21.50
2019-05-18T22:49:38.531Z,22.93
2019-05-18T22:52:06.925Z,23.57
2019-05-18T22:54:35.415Z,22.07
2019-05-18T22:57:03.795Z,21.80
2019-05-18T22:59:32.194Z,22.60
2019-05-18T23:02:00.611Z,22.83
2019-05-18T23:04:28.996Z,22.73
2019-05-18T23:06:57.406Z,22.70
2019-05-18T23:09:25.816Z,23.13
2019-05-18T23:11:54.220Z,23.93
2019-05-18T23:14:22.614Z,23.53
2019-05-18T23:16:51.005Z,24.63
2019-05-18T23:19:19.411Z,24.73
2019-05-18T23:21:47.801Z,25.47
2019-05-18T23:24:16.194Z,25.10
2019-05-18T23:26:44.610Z,26.10
2019-05-18T23:29:13.016Z,27.67
2019-05-18T23:31:41.398Z,27.17
2019-05-18T23:34:09.797Z,26.27
2019-05-18T23:36:38.198Z,27.57
2019-05-18T23:39:06.668Z,27.37
2019-05-18T23:41:35.214Z,26.20
2019-05-18T23:44:04.469Z,28.03
2019-05-18T23:46:32.858Z,30.07
2019-05-18T23:49:10.359Z,29.07
2019-05-18T23:51:31.390Z,30.03
2019-05-18T23:53:59.786Z,29.47
2019-05-18T23:56:28.180Z,30.40
2019-05-18T23:58:56.571Z,30.63
